Time;durP1;ratioP1;P1;durP2;ratioP2;P2;SDS_P1;SDS_P2;PMS_P1;PMS_P2;Temp;Humidity;BMP_temperature;BMP_pressure;BME280_temperature;BME280_humidity;BME280_pressure;Samples;Min_cycle;Max_cycle;Signal;HPM_P1;HPM_P2
2021/09/22 00:02:06;;;;;;;4.87;4.30;;;11.80;99.90;;;;;;5076880;28;20250;-36
2021/09/22 00:04:33;;;;;;;8.50;4.90;;;11.80;99.90;;;;;;5084764;28;20181;-36
2021/09/22 00:06:58;;;;;;;6.40;5.00;;;11.70;99.90;;;;;;5084608;28;20517;-36
2021/09/22 00:09:24;;;;;;;6.07;4.97;;;11.80;99.90;;;;;;5085222;28;20530;-36
2021/09/22 00:11:50;;;;;;;6.33;5.03;;;12.00;99.90;;;;;;5085545;28;20223;-36
2021/09/22 00:14:15;;;;;;;5.87;5.27;;;11.90;99.90;;;;;;5085405;28;20317;-37
2021/09/22 00:16:42;;;;;;;5.43;4.63;;;11.90;99.90;;;;;;5067287;28;20439;-36
2021/09/22 00:19:07;;;;;;;5.87;5.37;;;11.90;99.90;;;;;;5077326;28;20298;-36
2021/09/22 00:21:33;;;;;;;7.40;5.73;;;11.90;99.90;;;;;;5085619;28;21154;-36
2021/09/22 00:23:59;;;;;;;5.87;5.20;;;11.90;99.90;;;;;;5085596;28;20179;-36
2021/09/22 00:26:25;;;;;;;6.40;5.50;;;11.90;99.90;;;;;;5085913;28;20177;-36
2021/09/22 00:28:50;;;;;;;6.93;5.37;;;11.90;99.90;;;;;;5085988;28;20549;-36
2021/09/22 00:31:16;;;;;;;5.63;4.83;;;11.90;99.90;;;;;;5080144;28;20185;-36
2021/09/22 00:33:42;;;;;;;5.23;4.73;;;11.90;99.90;;;;;;5079262;28;20275;-36
2021/09/22 00:36:08;;;;;;;7.43;5.07;;;11.80;99.90;;;;;;5084051;28;20446;-36
2021/09/22 00:38:34;;;;;;;5.40;4.90;;;11.70;99.90;;;;;;5085673;28;20425;-37
2021/09/22 00:41:00;;;;;;;4.80;4.30;;;11.70;99.90;;;;;;5084092;28;20193;-36
2021/09/22 00:43:26;;;;;;;5.60;4.87;;;11.60;99.90;;;;;;5086093;28;20430;-36
2021/09/22 00:45:52;;;;;;;5.90;5.30;;;11.50;99.90;;;;;;5085266;28;20477;-36
2021/09/22 00:48:17;;;;;;;6.30;4.93;;;11.60;99.90;;;;;;5078862;28;20180;-37
2021/09/22 00:50:43;;;;;;;5.30;4.80;;;11.30;99.90;;;;;;5084555;28;20500;-36
2021/09/22 00:53:11;;;;;;;6.03;5.37;;;11.20;99.90;;;;;;5086020;28;20188;-36
2021/09/22 00:55:38;;;;;;;5.47;4.87;;;11.20;99.90;;;;;;5085381;28;20230;-36
2021/09/22 00:58:06;;;;;;;6.87;5.70;;;11.20;99.90;;;;;;5085459;28;20422;-36
2021/09/22 01:00:32;;;;;;;5.53;4.93;;;11.20;99.90;;;;;;5084608;28;20415;-37
2021/09/22 01:02:58;;;;;;;7.30;5.30;;;11.30;99.90;;;;;;5074118;28;20446;-36
2021/09/22 01:05:25;;;;;;;6.47;5.30;;;11.30;99.90;;;;;;5085414;28;20535;-36
2021/09/22 01:07:52;;;;;;;6.17;5.03;;;11.30;99.90;;;;;;5085428;28;20445;-36
2021/09/22 01:10:19;;;;;;;6.30;5.07;;;11.20;99.90;;;;;;5085088;28;20429;-37
2021/09/22 01:12:45;;;;;;;7.00;5.90;;;11.30;99.90;;;;;;5085159;28;20426;-36
2021/09/22 01:15:23;;;;;;;6.07;5.57;;;11.20;99.90;;;;;;5085137;28;20450;-36
2021/09/22 01:17:50;;;;;;;6.13;5.57;;;11.30;99.90;;;;;;5076047;28;20708;-37
2021/09/22 01:20:16;;;;;;;6.67;5.50;;;11.40;99.90;;;;;;5085089;28;20410;-36
2021/09/22 01:22:42;;;;;;;6.80;5.37;;;11.40;99.90;;;;;;5085474;28;20543;-36
2021/09/22 01:25:11;;;;;;;7.50;6.33;;;11.30;99.90;;;;;;5088380;28;20195;-36
2021/09/22 01:27:49;;;;;;;7.37;5.43;;;11.20;99.90;;;;;;5088877;28;20441;-37
2021/09/22 01:30:15;;;;;;;6.30;5.70;;;11.20;99.90;;;;;;5088377;28;20471;-36
2021/09/22 01:32:48;;;;;;;6.70;5.60;;;11.00;99.90;;;;;;5079422;28;20430;-36
2021/09/22 01:35:14;;;;;;;7.30;6.20;;;11.00;99.90;;;;;;5087159;28;20989;-36
2021/09/22 01:37:40;;;;;;;9.63;7.03;;;11.10;99.90;;;;;;5088242;28;20468;-36
2021/09/22 01:40:07;;;;;;;5.87;5.37;;;11.10;99.90;;;;;;5087219;28;20503;-36
2021/09/22 01:42:33;;;;;;;7.00;5.70;;;11.20;99.90;;;;;;5088351;28;20283;-36
2021/09/22 01:45:01;;;;;;;6.93;5.33;;;11.20;99.90;;;;;;5088856;28;20513;-36
2021/09/22 01:47:27;;;;;;;6.70;5.40;;;11.20;99.90;;;;;;5082852;28;20568;-36
2021/09/22 01:50:04;;;;;;;6.23;5.60;;;11.20;99.90;;;;;;5085687;28;20427;-36
2021/09/22 01:52:34;;;;;;;7.23;6.00;;;11.10;99.90;;;;;;5088494;28;20192;-37
2021/09/22 01:55:00;;;;;;;6.70;6.10;;;11.10;99.90;;;;;;5087943;28;20535;-36
2021/09/22 01:57:26;;;;;;;7.97;6.60;;;11.10;99.90;;;;;;5088554;28;20411;-36
2021/09/22 01:59:52;;;;;;;8.63;6.40;;;11.00;99.90;;;;;;5087517;28;20780;-36
2021/09/22 02:02:18;;;;;;;7.00;6.30;;;11.00;99.90;;;;;;5080294;28;20447;-36
2021/09/22 02:04:44;;;;;;;6.47;5.80;;;11.00;99.90;;;;;;5085472;28;20189;-36
2021/09/22 02:07:09;;;;;;;6.40;5.33;;;11.00;99.90;;;;;;5088528;28;20191;-36
2021/09/22 02:09:35;;;;;;;6.83;5.93;;;11.30;99.90;;;;;;5086754;28;20686;-36
2021/09/22 02:12:01;;;;;;;7.67;6.80;;;11.00;99.90;;;;;;5088403;28;20200;-36
2021/09/22 02:14:27;;;;;;;7.43;6.50;;;11.00;99.90;;;;;;5087606;28;20207;-37
2021/09/22 02:16:53;;;;;;;9.03;6.40;;;11.30;99.90;;;;;;5083816;28;20445;-36
2021/09/22 02:19:19;;;;;;;7.03;6.20;;;11.10;99.90;;;;;;5081546;28;20172;-36
2021/09/22 02:21:45;;;;;;;6.27;5.67;;;11.00;99.90;;;;;;5087867;28;20658;-37
2021/09/22 02:24:11;;;;;;;8.93;5.57;;;11.20;99.90;;;;;;5087387;28;20496;-36
2021/09/22 02:26:37;;;;;;;8.07;6.77;;;11.00;99.90;;;;;;5087949;28;20243;-37
2021/09/22 02:29:03;;;;;;;7.60;6.80;;;11.00;99.90;;;;;;5086699;28;20450;-36
2021/09/22 02:31:29;;;;;;;11.90;7.00;;;11.00;99.90;;;;;;5087449;28;20293;-36
2021/09/22 02:33:55;;;;;;;8.73;7.30;;;10.90;99.90;;;;;;5072488;28;20433;-37
2021/09/22 02:36:20;;;;;;;7.77;6.90;;;11.10;99.90;;;;;;5087419;28;20208;-37
2021/09/22 02:38:46;;;;;;;8.33;7.17;;;10.90;99.90;;;;;;5087627;28;20255;-36
2021/09/22 02:41:12;;;;;;;8.90;7.90;;;10.90;99.90;;;;;;5085889;28;20583;-36
2021/09/22 02:43:37;;;;;;;10.63;6.90;;;10.90;99.90;;;;;;5087560;28;20196;-36
2021/09/22 02:46:03;;;;;;;9.17;7.23;;;10.80;99.90;;;;;;5087459;28;20648;-36
2021/09/22 02:48:29;;;;;;;8.73;7.40;;;11.00;99.90;;;;;;5072837;28;20200;-36
2021/09/22 02:50:55;;;;;;;7.33;6.30;;;10.90;99.90;;;;;;5086338;28;20196;-37
2021/09/22 02:53:21;;;;;;;9.40;7.57;;;10.80;99.90;;;;;;5086942;28;20433;-36
2021/09/22 02:55:46;;;;;;;8.37;7.30;;;11.00;99.90;;;;;;5085808;28;20776;-36
2021/09/22 02:58:13;;;;;;;8.57;7.67;;;11.10;99.90;;;;;;5087120;28;20188;-36
2021/09/22 03:00:39;;;;;;;9.33;7.77;;;10.90;99.90;;;;;;5086257;28;20711;-36
2021/09/22 03:03:05;;;;;;;9.13;8.13;;;10.90;99.90;;;;;;5077970;28;20422;-36
2021/09/22 03:05:31;;;;;;;9.50;7.37;;;10.80;99.90;;;;;;5086975;28;20210;-36
2021/09/22 03:07:57;;;;;;;11.47;8.80;;;10.90;99.90;;;;;;5084889;28;20430;-36
2021/09/22 03:10:23;;;;;;;11.43;8.50;;;10.90;99.90;;;;;;5086385;28;20775;-36
2021/09/22 03:12:49;;;;;;;11.00;9.40;;;11.00;99.90;;;;;;5086742;28;20207;-36
2021/09/22 03:15:15;;;;;;;11.90;9.00;;;11.20;99.90;;;;;;5085774;28;20298;-36
2021/09/22 03:17:41;;;;;;;9.97;8.90;;;11.00;99.90;;;;;;5080147;28;20334;-36
2021/09/22 03:20:08;;;;;;;10.57;8.37;;;11.00;99.90;;;;;;5080840;28;20422;-36
2021/09/22 03:22:33;;;;;;;10.80;8.90;;;11.00;99.90;;;;;;5086169;28;20422;-36
2021/09/22 03:24:59;;;;;;;12.17;8.60;;;11.00;99.90;;;;;;5086744;28;20423;-37
2021/09/22 03:27:25;;;;;;;13.30;9.00;;;11.10;99.90;;;;;;5086571;28;20723;-36
2021/09/22 03:29:50;;;;;;;12.10;8.50;;;11.10;99.90;;;;;;5086155;28;20717;-37
2021/09/22 03:32:16;;;;;;;9.93;8.63;;;11.00;99.90;;;;;;5083394;28;20595;-36
2021/09/22 03:34:42;;;;;;;10.70;8.70;;;11.00;99.90;;;;;;5079450;28;20695;-36
2021/09/22 03:37:07;;;;;;;12.67;7.83;;;11.10;99.90;;;;;;5086436;28;20212;-36
2021/09/22 03:39:33;;;;;;;9.13;7.60;;;11.10;99.90;;;;;;5070882;28;20188;-36
2021/09/22 03:41:59;;;;;;;8.77;7.57;;;11.20;99.90;;;;;;5086356;28;20229;-36
2021/09/22 03:44:25;;;;;;;9.77;7.93;;;11.10;99.90;;;;;;5072648;28;20257;-36
2021/09/22 03:46:52;;;;;;;10.77;8.10;;;11.00;99.90;;;;;;5085979;28;20237;-36
2021/09/22 03:49:18;;;;;;;8.80;7.60;;;11.00;99.90;;;;;;5073773;28;20441;-36
2021/09/22 03:51:43;;;;;;;11.10;7.93;;;11.10;99.90;;;;;;5084648;28;20411;-36
2021/09/22 03:54:09;;;;;;;7.40;6.60;;;11.00;99.90;;;;;;5072234;28;20196;-36
2021/09/22 03:56:35;;;;;;;10.67;7.43;;;11.20;99.90;;;;;;5086000;28;20188;-36
2021/09/22 03:59:02;;;;;;;9.73;7.73;;;11.00;99.90;;;;;;5085453;28;20184;-36
2021/09/22 04:01:28;;;;;;;10.03;7.53;;;10.90;99.90;;;;;;5086143;28;20195;-36
2021/09/22 04:03:54;;;;;;;10.80;7.30;;;11.20;99.90;;;;;;5075596;28;20824;-36
2021/09/22 04:06:19;;;;;;;9.37;8.23;;;10.90;99.90;;;;;;5086039;28;20477;-36
2021/09/22 04:08:45;;;;;;;9.87;8.27;;;10.90;99.90;;;;;;5085533;28;20585;-36
2021/09/22 04:11:11;;;;;;;10.20;8.20;;;10.90;99.90;;;;;;5085622;28;20577;-36
2021/09/22 04:13:36;;;;;;;8.63;7.73;;;10.90;99.90;;;;;;5085796;28;20523;-36
2021/09/22 04:16:02;;;;;;;9.30;7.87;;;10.90;99.90;;;;;;5085810;28;20569;-36
2021/09/22 04:18:28;;;;;;;9.13;8.10;;;10.80;99.90;;;;;;5076880;28;20231;-36
2021/09/22 04:20:54;;;;;;;10.20;8.13;;;10.90;99.90;;;;;;5083713;28;20426;-36
2021/09/22 04:23:20;;;;;;;11.43;8.00;;;10.80;99.90;;;;;;5085798;28;20216;-36
2021/09/22 04:25:45;;;;;;;8.97;7.83;;;10.70;99.90;;;;;;5085669;28;20192;-36
2021/09/22 04:28:12;;;;;;;8.17;7.20;;;10.70;99.90;;;;;;5085833;28;20299;-36
2021/09/22 04:30:37;;;;;;;8.37;7.47;;;10.70;99.90;;;;;;5085052;28;20610;-36
2021/09/22 04:33:03;;;;;;;10.40;7.53;;;10.70;99.90;;;;;;5080357;28;20434;-36
2021/09/22 04:35:30;;;;;;;10.80;8.43;;;10.70;99.90;;;;;;5080821;28;20756;-36
2021/09/22 04:37:56;;;;;;;9.07;7.70;;;10.80;99.90;;;;;;5084096;28;20583;-36
2021/09/22 04:40:23;;;;;;;11.17;8.20;;;10.80;99.90;;;;;;5083239;28;20753;-36
2021/09/22 04:42:49;;;;;;;10.40;8.87;;;10.60;99.90;;;;;;5083167;28;20434;-36
2021/09/22 04:45:15;;;;;;;10.30;8.60;;;10.60;99.90;;;;;;5085312;28;20838;-36
2021/09/22 04:47:41;;;;;;;9.77;8.07;;;10.60;99.90;;;;;;5084161;28;20188;-36
2021/09/22 04:50:08;;;;;;;12.17;8.60;;;10.70;99.90;;;;;;5075061;28;20186;-36
2021/09/22 04:52:34;;;;;;;12.10;8.53;;;10.70;99.90;;;;;;5083000;28;20207;-37
2021/09/22 04:55:00;;;;;;;11.70;8.63;;;10.60;99.90;;;;;;5078169;28;20458;-36
2021/09/22 04:57:25;;;;;;;9.90;8.40;;;10.90;99.90;;;;;;5085238;28;20184;-36
2021/09/22 04:59:51;;;;;;;11.23;9.00;;;10.70;99.90;;;;;;5087435;28;20188;-36
2021/09/22 05:02:17;;;;;;;12.40;8.57;;;10.80;99.90;;;;;;5089277;28;20184;-36
2021/09/22 05:04:42;;;;;;;10.47;9.20;;;10.60;99.90;;;;;;5074158;28;20188;-36
2021/09/22 05:07:08;;;;;;;9.50;8.07;;;10.60;99.90;;;;;;5089343;28;20229;-36
2021/09/22 05:09:33;;;;;;;12.90;8.37;;;10.50;99.90;;;;;;5088702;28;20204;-36
2021/09/22 05:12:00;;;;;;;12.70;9.23;;;10.70;99.90;;;;;;5089092;28;20184;-36
2021/09/22 05:14:26;;;;;;;9.93;7.70;;;10.60;99.90;;;;;;5089095;28;20227;-36
2021/09/22 05:16:52;;;;;;;9.83;8.83;;;10.50;99.90;;;;;;5088733;28;20418;-36
2021/09/22 05:19:19;;;;;;;12.80;9.10;;;10.50;99.90;;;;;;5077546;28;20216;-36
2021/09/22 05:21:46;;;;;;;13.97;8.40;;;10.80;99.90;;;;;;5083317;28;20705;-37
2021/09/22 05:24:11;;;;;;;10.67;7.83;;;10.60;99.90;;;;;;5088412;28;20410;-37
2021/09/22 05:26:37;;;;;;;10.07;8.67;;;10.60;99.90;;;;;;5087617;28;21007;-36
2021/09/22 05:29:03;;;;;;;9.80;8.60;;;10.70;99.90;;;;;;5086303;28;20184;-37
2021/09/22 05:31:29;;;;;;;11.97;9.07;;;10.50;99.90;;;;;;5086938;28;20414;-36
2021/09/22 05:33:55;;;;;;;12.93;9.00;;;10.50;99.90;;;;;;5081254;28;20670;-36
2021/09/22 05:36:21;;;;;;;15.23;9.60;;;10.60;99.90;;;;;;5081896;28;20197;-36
2021/09/22 05:38:47;;;;;;;10.20;8.47;;;10.60;99.90;;;;;;5081740;28;20419;-36
2021/09/22 05:41:12;;;;;;;11.57;9.30;;;10.50;99.90;;;;;;5085995;28;20525;-36
2021/09/22 05:43:38;;;;;;;12.57;9.70;;;10.60;99.90;;;;;;5085294;28;20335;-36
2021/09/22 05:46:04;;;;;;;14.47;10.57;;;10.60;99.90;;;;;;5082905;28;20190;-36
2021/09/22 05:48:29;;;;;;;13.20;11.00;;;10.70;99.90;;;;;;5083607;28;20185;-36
2021/09/22 05:50:55;;;;;;;12.57;10.57;;;10.70;99.90;;;;;;5082097;28;20565;-36
2021/09/22 05:53:21;;;;;;;13.70;10.10;;;10.80;99.90;;;;;;5088100;28;20181;-36
2021/09/22 05:55:47;;;;;;;13.67;10.70;;;10.90;99.90;;;;;;5088271;28;20472;-36
2021/09/22 05:58:15;;;;;;;12.27;10.03;;;10.80;99.90;;;;;;5085271;28;20181;-36
2021/09/22 06:00:42;;;;;;;14.30;10.77;;;10.90;99.90;;;;;;5086643;28;20446;-36
2021/09/22 06:03:09;;;;;;;15.50;11.27;;;10.90;99.90;;;;;;5086842;28;20411;-36
2021/09/22 06:05:35;;;;;;;14.30;11.40;;;11.10;99.90;;;;;;5075925;28;20698;-36
2021/09/22 06:08:01;;;;;;;14.17;11.13;;;11.10;99.90;;;;;;5083461;28;20439;-36
2021/09/22 06:10:27;;;;;;;14.40;10.73;;;11.40;99.90;;;;;;5085100;28;20491;-36
2021/09/22 06:12:52;;;;;;;11.43;10.17;;;11.30;99.90;;;;;;5087069;28;20184;-36
2021/09/22 06:15:18;;;;;;;14.57;10.87;;;11.40;99.90;;;;;;5086557;28;20196;-36
2021/09/22 06:17:44;;;;;;;13.77;11.50;;;11.50;99.90;;;;;;5087625;28;20180;-36
2021/09/22 06:20:10;;;;;;;15.13;11.13;;;11.60;99.90;;;;;;5079299;28;20191;-37
2021/09/22 06:22:35;;;;;;;14.33;11.20;;;11.60;99.90;;;;;;5085409;28;20538;-36
2021/09/22 06:25:01;;;;;;;13.27;10.77;;;11.60;99.90;;;;;;5087569;28;20812;-36
2021/09/22 06:27:27;;;;;;;13.77;12.23;;;11.80;99.90;;;;;;5087916;28;20188;-36
2021/09/22 06:29:53;;;;;;;13.70;11.43;;;11.80;99.90;;;;;;5086738;28;20406;-36
2021/09/22 06:32:18;;;;;;;14.17;10.50;;;11.90;99.90;;;;;;5086932;28;20518;-36
2021/09/22 06:34:44;;;;;;;20.80;11.10;;;12.00;99.90;;;;;;5082574;28;20308;-36
2021/09/22 06:37:10;;;;;;;12.83;10.80;;;12.10;99.90;;;;;;5082678;28;20635;-36
2021/09/22 06:39:36;;;;;;;13.80;11.53;;;12.10;99.90;;;;;;5083987;28;20192;-36
2021/09/22 06:42:02;;;;;;;15.60;12.00;;;12.20;99.90;;;;;;5085886;28;20925;-37
2021/09/22 06:44:28;;;;;;;15.90;11.90;;;12.20;99.90;;;;;;5087336;28;20301;-36
2021/09/22 06:46:54;;;;;;;15.60;12.47;;;12.30;99.90;;;;;;5087197;28;21004;-36
2021/09/22 06:49:20;;;;;;;14.30;11.80;;;12.30;99.90;;;;;;5079489;28;20522;-36
2021/09/22 06:51:45;;;;;;;14.40;12.20;;;12.40;99.90;;;;;;5085091;28;20646;-36
2021/09/22 06:54:11;;;;;;;16.67;12.43;;;12.50;99.90;;;;;;5085455;28;20191;-36
2021/09/22 06:56:37;;;;;;;15.37;12.90;;;12.50;99.90;;;;;;5086766;28;20214;-36
2021/09/22 06:59:02;;;;;;;16.70;12.43;;;12.60;99.90;;;;;;5085960;28;20619;-36
2021/09/22 07:01:29;;;;;;;15.00;11.53;;;12.70;99.90;;;;;;5085628;28;20647;-37
2021/09/22 07:03:54;;;;;;;14.97;12.80;;;12.80;99.90;;;;;;5084219;28;20276;-37
2021/09/22 07:06:20;;;;;;;18.07;12.90;;;12.80;99.90;;;;;;5086890;28;20565;-37
2021/09/22 07:08:46;;;;;;;15.07;13.00;;;12.90;99.90;;;;;;5086416;28;20216;-37
2021/09/22 07:11:11;;;;;;;19.20;14.10;;;12.90;99.90;;;;;;5086325;28;20203;-37
2021/09/22 07:13:37;;;;;;;15.60;12.50;;;13.00;99.90;;;;;;5085753;28;20246;-36
2021/09/22 07:16:04;;;;;;;16.33;13.20;;;13.00;99.90;;;;;;5086089;28;20399;-37
2021/09/22 07:18:31;;;;;;;16.50;12.70;;;13.00;99.90;;;;;;5083420;28;20470;-37
2021/09/22 07:21:00;;;;;;;16.97;13.40;;;13.10;99.90;;;;;;5077635;28;20496;-37
2021/09/22 07:23:26;;;;;;;16.53;12.67;;;13.10;99.90;;;;;;5086145;28;20216;-37
2021/09/22 07:25:52;;;;;;;19.80;13.77;;;13.20;99.90;;;;;;5086689;28;20426;-36
2021/09/22 07:28:17;;;;;;;16.33;13.70;;;13.20;99.90;;;;;;5086643;28;20441;-37
2021/09/22 07:30:43;;;;;;;16.00;12.87;;;13.30;99.90;;;;;;5086274;28;20672;-37
2021/09/22 07:33:09;;;;;;;19.27;13.30;;;13.40;99.90;;;;;;5085307;28;20196;-36
2021/09/22 07:35:35;;;;;;;21.67;13.67;;;13.50;99.90;;;;;;5075325;28;20282;-37
2021/09/22 07:38:01;;;;;;;17.20;14.23;;;13.60;99.90;;;;;;5082502;28;20188;-37
2021/09/22 07:40:28;;;;;;;19.77;14.27;;;13.80;99.90;;;;;;5084876;28;20206;-36
2021/09/22 07:42:56;;;;;;;18.00;13.33;;;13.80;99.90;;;;;;5082173;28;20418;-37
2021/09/22 07:45:21;;;;;;;17.43;13.97;;;13.90;99.90;;;;;;5086373;28;20429;-37
2021/09/22 07:47:47;;;;;;;16.47;12.90;;;13.90;99.90;;;;;;5086606;28;20430;-37
2021/09/22 07:50:13;;;;;;;20.60;14.40;;;14.00;99.90;;;;;;5078723;28;20684;-37
2021/09/22 07:52:39;;;;;;;18.60;14.50;;;14.10;99.90;;;;;;5086394;28;20483;-37
2021/09/22 07:55:07;;;;;;;21.70;15.17;;;14.10;99.90;;;;;;5085964;28;20281;-37
2021/09/22 07:57:33;;;;;;;18.83;15.13;;;14.20;99.90;;;;;;5084868;28;20426;-37
2021/09/22 07:59:59;;;;;;;19.23;14.53;;;14.30;99.90;;;;;;5085215;28;20964;-37
2021/09/22 08:02:25;;;;;;;19.87;14.23;;;14.40;99.90;;;;;;5086615;28;20203;-37
2021/09/22 08:04:50;;;;;;;20.83;14.83;;;14.50;99.90;;;;;;5080980;28;20224;-37
2021/09/22 08:07:18;;;;;;;19.23;15.60;;;14.60;99.90;;;;;;5082110;28;20500;-36
2021/09/22 08:09:44;;;;;;;19.57;15.30;;;14.60;99.90;;;;;;5084987;28;20216;-37
2021/09/22 08:12:09;;;;;;;17.37;14.27;;;14.70;99.90;;;;;;5085955;28;20433;-37
2021/09/22 08:14:36;;;;;;;21.00;15.23;;;14.80;99.90;;;;;;5085732;28;20563;-37
2021/09/22 08:17:02;;;;;;;20.53;16.77;;;14.80;99.90;;;;;;5084690;28;20194;-37
2021/09/22 08:19:28;;;;;;;21.83;14.83;;;14.90;99.90;;;;;;5082444;28;20419;-37
2021/09/22 08:21:54;;;;;;;20.87;14.90;;;14.90;99.90;;;;;;5077321;28;20929;-36
2021/09/22 08:24:20;;;;;;;21.70;15.80;;;15.00;99.90;;;;;;5084363;28;20944;-37
2021/09/22 08:26:46;;;;;;;21.73;16.63;;;15.10;99.90;;;;;;5086151;28;20426;-37
2021/09/22 08:29:12;;;;;;;18.90;15.07;;;15.20;99.90;;;;;;5085323;28;20430;-37
2021/09/22 08:31:38;;;;;;;19.47;15.90;;;15.20;99.90;;;;;;5085915;28;20208;-37
2021/09/22 08:34:04;;;;;;;23.10;17.67;;;15.30;99.90;;;;;;5089104;28;20951;-37
2021/09/22 08:36:30;;;;;;;22.07;17.90;;;15.30;99.90;;;;;;5080392;28;20461;-38
2021/09/22 08:38:55;;;;;;;22.23;17.57;;;15.30;99.90;;;;;;5089423;28;20184;-37
2021/09/22 08:41:21;;;;;;;23.00;17.97;;;15.30;99.90;;;;;;5087847;28;20535;-37
2021/09/22 08:43:47;;;;;;;21.20;16.93;;;15.40;99.90;;;;;;5088256;28;20196;-37
2021/09/22 08:46:16;;;;;;;21.80;16.50;;;15.40;99.90;;;;;;5089721;28;20795;-37
2021/09/22 08:48:42;;;;;;;24.50;16.90;;;15.50;99.90;;;;;;5089610;28;20449;-37
2021/09/22 08:51:08;;;;;;;21.13;15.77;;;15.50;99.90;;;;;;5078294;28;20435;-37
2021/09/22 08:53:33;;;;;;;19.20;15.03;;;15.60;99.90;;;;;;5085828;28;20242;-36
2021/09/22 08:55:59;;;;;;;18.50;16.30;;;15.70;99.90;;;;;;5089493;28;20541;-37
2021/09/22 08:58:25;;;;;;;19.77;15.53;;;15.80;99.90;;;;;;5089557;28;20192;-37
2021/09/22 09:00:50;;;;;;;20.00;14.33;;;15.90;99.90;;;;;;5089018;28;20177;-37
2021/09/22 09:03:34;;;;;;;22.43;15.67;;;16.10;99.90;;;;;;5089564;28;20189;-37
2021/09/22 09:06:22;;;;;;;19.33;15.90;;;16.20;99.90;;;;;;5078127;28;20211;-37
2021/09/22 09:08:50;;;;;;;19.47;13.90;;;16.20;99.90;;;;;;5087335;28;20456;-37
2021/09/22 09:11:22;;;;;;;16.77;14.97;;;16.30;99.90;;;;;;5088654;28;20417;-37
2021/09/22 09:13:52;;;;;;;19.23;15.07;;;16.30;99.90;;;;;;5088985;28;20430;-37
2021/09/22 09:16:19;;;;;;;16.33;14.50;;;16.40;99.90;;;;;;5089083;28;20466;-37
2021/09/22 09:18:51;;;;;;;17.70;13.80;;;16.50;99.90;;;;;;5088957;28;20503;-37
2021/09/22 09:21:17;;;;;;;19.70;15.93;;;16.60;99.90;;;;;;5080220;28;20422;-37
2021/09/22 09:23:55;;;;;;;20.90;15.20;;;16.70;99.90;;;;;;5088709;28;20433;-37
2021/09/22 09:26:28;;;;;;;16.17;14.13;;;16.80;99.90;;;;;;5089005;28;20651;-37
2021/09/22 09:28:57;;;;;;;17.40;14.67;;;16.90;99.90;;;;;;5088269;28;20445;-37
2021/09/22 09:31:30;;;;;;;19.27;14.43;;;17.00;99.90;;;;;;5088658;28;20837;-37
2021/09/22 09:33:58;;;;;;;18.00;16.07;;;17.00;99.90;;;;;;5088924;28;20453;-37
2021/09/22 09:36:47;;;;;;;17.40;14.47;;;17.10;99.90;;;;;;5079906;28;20576;-37
2021/09/22 09:39:20;;;;;;;18.40;14.70;;;17.20;99.90;;;;;;5082162;28;20425;-36
2021/09/22 09:41:51;;;;;;;20.20;15.87;;;17.30;99.90;;;;;;5088836;28;20422;-38
2021/09/22 09:44:21;;;;;;;18.73;14.70;;;17.40;99.90;;;;;;5087555;28;20450;-37
2021/09/22 09:46:48;;;;;;;16.60;12.40;;;17.60;99.90;;;;;;5088929;28;20766;-37
2021/09/22 09:49:16;;;;;;;16.07;14.17;;;17.70;99.90;;;;;;5086474;28;20425;-37
2021/09/22 09:51:50;;;;;;;17.00;13.90;;;17.80;99.90;;;;;;5076591;28;20431;-37
2021/09/22 09:54:22;;;;;;;17.40;14.50;;;17.90;99.90;;;;;;5084805;28;20869;-37
2021/09/22 09:56:49;;;;;;;14.00;12.47;;;18.00;99.90;;;;;;5082795;28;20406;-37
2021/09/22 09:59:17;;;;;;;12.43;10.17;;;18.10;99.90;;;;;;5087542;28;20430;-37
2021/09/22 10:01:55;;;;;;;12.60;9.50;;;18.20;99.90;;;;;;5088810;28;20427;-37
2021/09/22 10:04:23;;;;;;;12.17;10.40;;;18.30;99.90;;;;;;5088403;28;20417;-39
2021/09/22 10:06:50;;;;;;;10.83;9.67;;;18.40;99.90;;;;;;5078532;28;20787;-37
2021/09/22 10:09:17;;;;;;;11.70;8.53;;;18.40;99.90;;;;;;5085828;28;20527;-38
2021/09/22 10:11:45;;;;;;;8.80;7.90;;;18.50;99.90;;;;;;5088585;28;20437;-37
2021/09/22 10:14:16;;;;;;;7.40;6.37;;;18.50;99.90;;;;;;5087954;28;20427;-37
2021/09/22 10:16:42;;;;;;;8.90;8.00;;;18.50;99.90;;;;;;5086556;28;20434;-37
2021/09/22 10:19:09;;;;;;;10.70;9.60;;;18.50;99.90;;;;;;5087489;28;20502;-37
2021/09/22 10:21:37;;;;;;;12.00;10.80;;;18.60;99.90;;;;;;5077186;28;20440;-38
2021/09/22 10:24:08;;;;;;;8.00;7.20;;;18.50;99.90;;;;;;5087871;28;20433;-37
2021/09/22 10:26:34;;;;;;;10.53;9.07;;;18.50;99.90;;;;;;5086117;28;20426;-37
2021/09/22 10:29:21;;;;;;;10.50;9.40;;;18.50;99.90;;;;;;5087286;28;20418;-37
2021/09/22 10:31:46;;;;;;;11.97;10.70;;;18.60;99.90;;;;;;5076742;28;20799;-37
2021/09/22 10:34:26;;;;;;;10.97;8.40;;;18.70;99.90;;;;;;5087922;28;20415;-37
2021/09/22 10:36:51;;;;;;;10.43;8.40;;;18.70;99.90;;;;;;5078432;28;20435;-37
2021/09/22 10:39:25;;;;;;;11.23;9.67;;;18.80;99.90;;;;;;5085495;28;20407;-38
2021/09/22 10:41:51;;;;;;;12.20;9.40;;;18.90;99.90;;;;;;5086109;28;20192;-38
2021/09/22 10:44:37;;;;;;;14.30;8.80;;;19.00;99.90;;;;;;5087469;28;21174;-37
2021/09/22 10:47:26;;;;;;;9.30;8.30;;;19.00;99.90;;;;;;5087675;28;20207;-37
2021/09/22 10:49:52;;;;;;;10.23;9.10;;;19.10;99.90;;;;;;5087596;28;20421;-37
2021/09/22 10:52:38;;;;;;;13.20;10.67;;;19.20;99.90;;;;;;5077447;28;20429;-37
2021/09/22 10:55:16;;;;;;;12.40;10.57;;;19.20;99.90;;;;;;5085071;28;20771;-37
2021/09/22 10:57:45;;;;;;;12.80;10.07;;;19.20;99.90;;;;;;5087359;28;20421;-38
2021/09/22 11:00:16;;;;;;;9.73;8.73;;;19.20;99.90;;;;;;5086660;28;20830;-37
2021/09/22 11:02:53;;;;;;;11.50;8.50;;;19.20;99.90;;;;;;5087268;28;20537;-37
2021/09/22 11:05:27;;;;;;;11.73;9.97;;;19.30;99.90;;;;;;5086954;28;20423;-38
2021/09/22 11:07:53;;;;;;;12.47;9.63;;;19.40;99.90;;;;;;5076716;28;20458;-37
2021/09/22 11:10:45;;;;;;;9.17;8.10;;;19.50;99.90;;;;;;5086549;28;20421;-37
2021/09/22 11:13:23;;;;;;;8.73;7.57;;;19.50;99.90;;;;;;5085646;28;20575;-38
2021/09/22 11:15:54;;;;;;;7.60;6.80;;;19.60;99.90;;;;;;5087125;28;20454;-37
2021/09/22 11:18:20;;;;;;;9.30;7.70;;;19.70;99.90;;;;;;5087105;28;20430;-37
2021/09/22 11:21:01;;;;;;;10.10;7.37;;;19.70;99.90;;;;;;5086254;28;20756;-37
2021/09/22 11:23:28;;;;;;;8.03;6.60;;;19.80;99.90;;;;;;5075914;28;20406;-38
2021/09/22 11:25:54;;;;;;;6.87;6.17;;;19.80;99.90;;;;;;5086460;28;20433;-37
2021/09/22 11:28:20;;;;;;;6.97;5.70;;;19.80;99.90;;;;;;5086753;28;20418;-37
2021/09/22 11:30:55;;;;;;;6.47;5.87;;;19.80;99.90;;;;;;5086029;28;20740;-37
2021/09/22 11:33:22;;;;;;;7.17;5.00;;;19.90;99.90;;;;;;5086562;28;20908;-37
2021/09/22 11:35:48;;;;;;;5.20;4.10;;;19.80;99.50;;;;;;5086647;28;20465;-40
2021/09/22 11:38:14;;;;;;;7.10;6.10;;;19.80;99.90;;;;;;5077880;28;20430;-38
2021/09/22 11:40:41;;;;;;;7.07;6.03;;;19.90;99.90;;;;;;5084586;28;20282;-37
2021/09/22 11:43:12;;;;;;;7.53;6.70;;;19.90;99.90;;;;;;5085129;28;20669;-39
2021/09/22 11:45:41;;;;;;;7.10;5.83;;;19.90;99.80;;;;;;5086443;28;20947;-37
2021/09/22 11:48:09;;;;;;;7.33;6.33;;;19.90;99.90;;;;;;5086443;28;20433;-37
2021/09/22 11:50:41;;;;;;;7.23;6.53;;;19.90;99.70;;;;;;5085667;28;20891;-37
2021/09/22 11:53:27;;;;;;;7.00;6.30;;;19.90;99.90;;;;;;5075923;28;20525;-40
2021/09/22 11:55:53;;;;;;;7.63;6.93;;;20.00;99.90;;;;;;5081806;28;21281;-38
2021/09/22 11:58:25;;;;;;;10.60;7.40;;;20.10;99.90;;;;;;5086029;28;20411;-38
2021/09/22 12:00:53;;;;;;;10.90;9.40;;;20.10;99.90;;;;;;5085555;28;20192;-37
2021/09/22 12:03:22;;;;;;;9.57;7.40;;;20.10;99.90;;;;;;5085634;28;20558;-37
2021/09/22 12:06:08;;;;;;;7.37;6.50;;;20.10;99.90;;;;;;5086190;28;20431;-37
2021/09/22 12:08:36;;;;;;;8.80;6.60;;;20.30;99.90;;;;;;5073748;28;20952;-37
2021/09/22 12:11:02;;;;;;;8.37;7.37;;;20.30;99.90;;;;;;5077269;28;20423;-37
2021/09/22 12:13:28;;;;;;;8.40;6.77;;;20.40;99.90;;;;;;5085839;28;20422;-37
2021/09/22 12:15:56;;;;;;;6.10;4.97;;;20.40;99.90;;;;;;5085967;28;20985;-37
2021/09/22 12:18:23;;;;;;;7.90;6.07;;;20.50;99.90;;;;;;5086082;28;20180;-37
2021/09/22 12:20:49;;;;;;;6.00;5.33;;;20.60;99.90;;;;;;5085360;28;20929;-37
2021/09/22 12:23:24;;;;;;;6.07;4.77;;;20.50;98.60;;;;;;5074796;28;20510;-37
2021/09/22 12:25:49;;;;;;;5.50;4.57;;;20.60;99.50;;;;;;5084020;28;20414;-37
2021/09/22 12:28:21;;;;;;;5.13;4.63;;;20.60;98.80;;;;;;5085689;28;20429;-37
2021/09/22 12:30:47;;;;;;;7.40;6.00;;;20.50;98.80;;;;;;5085030;28;20214;-38
2021/09/22 12:33:18;;;;;;;6.87;6.17;;;20.60;99.90;;;;;;5086253;28;20507;-37
2021/09/22 12:35:44;;;;;;;7.40;5.40;;;20.60;99.40;;;;;;5085598;28;20207;-38
2021/09/22 12:38:15;;;;;;;9.27;5.30;;;20.60;98.80;;;;;;5077093;28;20566;-37
2021/09/22 12:40:44;;;;;;;6.47;5.73;;;20.70;99.00;;;;;;5082958;28;20227;-37